sensor_id;sensor_type;location;lat;lon;timestamp;P1;durP1;ratioP1;P2;durP2;ratioP2
11957;SDS011;6039;52.576;13.348;2023-02-08T00:04:16;57.80;;;23.63;;
11957;SDS011;6039;52.576;13.348;2023-02-08T00:09:22;49.17;;;22.37;;
11957;SDS011;6039;52.576;13.348;2023-02-08T00:14:26;51.43;;;23.83;;
11957;SDS011;6039;52.576;13.348;2023-02-08T00:19:30;44.73;;;22.93;;
11957;SDS011;6039;52.576;13.348;2023-02-08T00:24:37;47.07;;;22.13;;
11957;SDS011;6039;52.576;13.348;2023-02-08T00:29:41;46.40;;;23.07;;
11957;SDS011;6039;52.576;13.348;2023-02-08T00:34:45;46.60;;;21.93;;
11957;SDS011;6039;52.576;13.348;2023-02-08T00:39:51;45.97;;;23.00;;
11957;SDS011;6039;52.576;13.348;2023-02-08T00:44:57;50.00;;;23.10;;
11957;SDS011;6039;52.576;13.348;2023-02-08T00:50:01;47.83;;;22.57;;
11957;SDS011;6039;52.576;13.348;2023-02-08T00:55:09;47.07;;;23.00;;
11957;SDS011;6039;52.576;13.348;2023-02-08T01:00:13;46.90;;;22.23;;
11957;SDS011;6039;52.576;13.348;2023-02-08T01:05:18;52.73;;;22.60;;
11957;SDS011;6039;52.576;13.348;2023-02-08T01:10:24;53.37;;;24.93;;
11957;SDS011;6039;52.576;13.348;2023-02-08T01:15:28;50.83;;;24.03;;
11957;SDS011;6039;52.576;13.348;2023-02-08T01:20:33;48.37;;;22.40;;
11957;SDS011;6039;52.576;13.348;2023-02-08T01:25:41;47.47;;;21.83;;
11957;SDS011;6039;52.576;13.348;2023-02-08T01:30:45;48.83;;;21.43;;
11957;SDS011;6039;52.576;13.348;2023-02-08T01:35:49;44.07;;;20.67;;
11957;SDS011;6039;52.576;13.348;2023-02-08T01:40:57;43.07;;;19.70;;
11957;SDS011;6039;52.576;13.348;2023-02-08T01:46:01;37.77;;;20.10;;
11957;SDS011;6039;52.576;13.348;2023-02-08T01:51:06;46.57;;;20.33;;
11957;SDS011;6039;52.576;13.348;2023-02-08T01:56:17;42.40;;;20.60;;
11957;SDS011;6039;52.576;13.348;2023-02-08T02:01:25;46.80;;;19.00;;
11957;SDS011;6039;52.576;13.348;2023-02-08T02:06:31;39.63;;;19.10;;
11957;SDS011;6039;52.576;13.348;2023-02-08T02:11:39;41.83;;;18.63;;
11957;SDS011;6039;52.576;13.348;2023-02-08T02:16:43;38.37;;;17.33;;
11957;SDS011;6039;52.576;13.348;2023-02-08T02:21:53;39.73;;;19.23;;
11957;SDS011;6039;52.576;13.348;2023-02-08T02:27:21;39.80;;;16.87;;
11957;SDS011;6039;52.576;13.348;2023-02-08T02:32:38;37.83;;;17.27;;
11957;SDS011;6039;52.576;13.348;2023-02-08T02:37:57;37.93;;;17.13;;
11957;SDS011;6039;52.576;13.348;2023-02-08T02:43:10;32.47;;;15.77;;
11957;SDS011;6039;52.576;13.348;2023-02-08T02:48:35;36.10;;;17.83;;
11957;SDS011;6039;52.576;13.348;2023-02-08T02:53:44;35.83;;;17.60;;
11957;SDS011;6039;52.576;13.348;2023-02-08T02:58:53;40.47;;;17.43;;
11957;SDS011;6039;52.576;13.348;2023-02-08T03:04:13;39.07;;;17.43;;
11957;SDS011;6039;52.576;13.348;2023-02-08T03:09:22;31.20;;;16.80;;
11957;SDS011;6039;52.576;13.348;2023-02-08T03:14:47;35.93;;;15.67;;
11957;SDS011;6039;52.576;13.348;2023-02-08T03:19:58;29.33;;;14.53;;
11957;SDS011;6039;52.576;13.348;2023-02-08T03:25:06;25.40;;;12.47;;
11957;SDS011;6039;52.576;13.348;2023-02-08T03:30:14;28.70;;;12.93;;
11957;SDS011;6039;52.576;13.348;2023-02-08T03:35:24;22.83;;;11.43;;
11957;SDS011;6039;52.576;13.348;2023-02-08T03:40:30;23.30;;;10.30;;
11957;SDS011;6039;52.576;13.348;2023-02-08T03:45:38;17.50;;;9.93;;
11957;SDS011;6039;52.576;13.348;2023-02-08T03:50:47;24.07;;;10.17;;
11957;SDS011;6039;52.576;13.348;2023-02-08T03:55:55;20.13;;;10.13;;
11957;SDS011;6039;52.576;13.348;2023-02-08T04:01:02;24.63;;;11.17;;
11957;SDS011;6039;52.576;13.348;2023-02-08T04:06:12;24.97;;;12.33;;
11957;SDS011;6039;52.576;13.348;2023-02-08T04:11:16;24.73;;;12.17;;
11957;SDS011;6039;52.576;13.348;2023-02-08T04:16:20;23.47;;;12.33;;
11957;SDS011;6039;52.576;13.348;2023-02-08T04:21:26;23.30;;;11.03;;
11957;SDS011;6039;52.576;13.348;2023-02-08T04:26:30;23.57;;;10.97;;
11957;SDS011;6039;52.576;13.348;2023-02-08T04:31:34;21.10;;;10.60;;
11957;SDS011;6039;52.576;13.348;2023-02-08T04:36:41;27.03;;;11.90;;
11957;SDS011;6039;52.576;13.348;2023-02-08T04:41:45;21.50;;;9.60;;
11957;SDS011;6039;52.576;13.348;2023-02-08T04:46:49;26.97;;;10.67;;
11957;SDS011;6039;52.576;13.348;2023-02-08T04:51:55;27.17;;;9.93;;
11957;SDS011;6039;52.576;13.348;2023-02-08T04:56:59;23.97;;;9.60;;
11957;SDS011;6039;52.576;13.348;2023-02-08T05:02:03;22.60;;;10.20;;
11957;SDS011;6039;52.576;13.348;2023-02-08T05:07:10;23.13;;;9.23;;
11957;SDS011;6039;52.576;13.348;2023-02-08T05:12:14;26.37;;;10.83;;
11957;SDS011;6039;52.576;13.348;2023-02-08T05:17:18;20.37;;;9.60;;
11957;SDS011;6039;52.576;13.348;2023-02-08T05:22:24;21.33;;;10.30;;
11957;SDS011;6039;52.576;13.348;2023-02-08T05:27:28;21.97;;;10.50;;
11957;SDS011;6039;52.576;13.348;2023-02-08T05:32:33;24.07;;;10.77;;
11957;SDS011;6039;52.576;13.348;2023-02-08T05:37:39;24.80;;;10.13;;
11957;SDS011;6039;52.576;13.348;2023-02-08T05:42:43;24.00;;;9.83;;
11957;SDS011;6039;52.576;13.348;2023-02-08T05:47:47;24.07;;;9.33;;
11957;SDS011;6039;52.576;13.348;2023-02-08T05:52:54;19.30;;;9.50;;
11957;SDS011;6039;52.576;13.348;2023-02-08T05:57:58;23.57;;;9.63;;
11957;SDS011;6039;52.576;13.348;2023-02-08T06:03:02;17.37;;;9.23;;
11957;SDS011;6039;52.576;13.348;2023-02-08T06:08:08;21.90;;;9.30;;
11957;SDS011;6039;52.576;13.348;2023-02-08T06:13:12;23.30;;;9.97;;
11957;SDS011;6039;52.576;13.348;2023-02-08T06:18:16;20.33;;;9.33;;
11957;SDS011;6039;52.576;13.348;2023-02-08T06:23:23;16.43;;;8.57;;
11957;SDS011;6039;52.576;13.348;2023-02-08T06:28:27;21.57;;;8.20;;
11957;SDS011;6039;52.576;13.348;2023-02-08T06:33:31;22.83;;;9.67;;
11957;SDS011;6039;52.576;13.348;2023-02-08T06:38:37;20.13;;;9.00;;
11957;SDS011;6039;52.576;13.348;2023-02-08T06:43:41;20.60;;;9.23;;
11957;SDS011;6039;52.576;13.348;2023-02-08T06:48:45;18.80;;;8.60;;
11957;SDS011;6039;52.576;13.348;2023-02-08T06:53:52;18.37;;;8.57;;
11957;SDS011;6039;52.576;13.348;2023-02-08T06:58:56;24.50;;;8.50;;
11957;SDS011;6039;52.576;13.348;2023-02-08T07:04:00;24.80;;;9.77;;
11957;SDS011;6039;52.576;13.348;2023-02-08T07:09:07;16.53;;;7.77;;
11957;SDS011;6039;52.576;13.348;2023-02-08T07:14:11;19.97;;;9.30;;
11957;SDS011;6039;52.576;13.348;2023-02-08T07:19:16;22.47;;;8.60;;
11957;SDS011;6039;52.576;13.348;2023-02-08T07:24:22;22.20;;;10.03;;
11957;SDS011;6039;52.576;13.348;2023-02-08T07:29:27;16.60;;;7.73;;
11957;SDS011;6039;52.576;13.348;2023-02-08T07:34:32;22.90;;;9.73;;
11957;SDS011;6039;52.576;13.348;2023-02-08T07:39:39;20.43;;;8.07;;
11957;SDS011;6039;52.576;13.348;2023-02-08T07:44:43;22.10;;;10.07;;
11957;SDS011;6039;52.576;13.348;2023-02-08T07:49:48;16.93;;;8.97;;
11957;SDS011;6039;52.576;13.348;2023-02-08T07:54:54;15.63;;;9.40;;
11957;SDS011;6039;52.576;13.348;2023-02-08T07:59:58;19.30;;;9.50;;
11957;SDS011;6039;52.576;13.348;2023-02-08T08:05:02;20.63;;;8.37;;
11957;SDS011;6039;52.576;13.348;2023-02-08T08:10:09;21.53;;;9.90;;
11957;SDS011;6039;52.576;13.348;2023-02-08T08:15:13;17.73;;;9.13;;
11957;SDS011;6039;52.576;13.348;2023-02-08T08:20:17;21.23;;;9.90;;
11957;SDS011;6039;52.576;13.348;2023-02-08T08:25:24;22.00;;;9.37;;
11957;SDS011;6039;52.576;13.348;2023-02-08T08:30:28;28.77;;;9.77;;
11957;SDS011;6039;52.576;13.348;2023-02-08T08:35:32;22.40;;;10.03;;
11957;SDS011;6039;52.576;13.348;2023-02-08T08:40:39;20.20;;;10.43;;
11957;SDS011;6039;52.576;13.348;2023-02-08T08:45:42;27.30;;;11.67;;
11957;SDS011;6039;52.576;13.348;2023-02-08T08:50:46;24.90;;;10.57;;
11957;SDS011;6039;52.576;13.348;2023-02-08T08:55:53;22.87;;;11.10;;
11957;SDS011;6039;52.576;13.348;2023-02-08T09:00:57;26.83;;;12.57;;
11957;SDS011;6039;52.576;13.348;2023-02-08T09:06:01;20.37;;;11.10;;
11957;SDS011;6039;52.576;13.348;2023-02-08T09:11:09;29.03;;;13.27;;
11957;SDS011;6039;52.576;13.348;2023-02-08T09:16:14;26.87;;;11.20;;
11957;SDS011;6039;52.576;13.348;2023-02-08T09:21:20;27.30;;;12.93;;
11957;SDS011;6039;52.576;13.348;2023-02-08T09:26:28;29.63;;;12.47;;
11957;SDS011;6039;52.576;13.348;2023-02-08T09:31:33;30.07;;;12.47;;
11957;SDS011;6039;52.576;13.348;2023-02-08T09:36:39;24.10;;;11.90;;
11957;SDS011;6039;52.576;13.348;2023-02-08T09:42:04;27.10;;;13.40;;
11957;SDS011;6039;52.576;13.348;2023-02-08T09:47:29;31.13;;;13.70;;
11957;SDS011;6039;52.576;13.348;2023-02-08T09:52:36;22.93;;;13.00;;
11957;SDS011;6039;52.576;13.348;2023-02-08T09:57:44;31.30;;;14.27;;
11957;SDS011;6039;52.576;13.348;2023-02-08T10:02:49;31.63;;;14.47;;
11957;SDS011;6039;52.576;13.348;2023-02-08T10:07:56;32.47;;;13.90;;
11957;SDS011;6039;52.576;13.348;2023-02-08T10:13:06;28.70;;;13.47;;
11957;SDS011;6039;52.576;13.348;2023-02-08T10:23:48;30.40;;;14.87;;
11957;SDS011;6039;52.576;13.348;2023-02-08T10:29:10;29.97;;;14.33;;
11957;SDS011;6039;52.576;13.348;2023-02-08T10:34:24;33.60;;;15.00;;
11957;SDS011;6039;52.576;13.348;2023-02-08T10:39:36;27.90;;;14.20;;
11957;SDS011;6039;52.576;13.348;2023-02-08T10:44:50;27.87;;;14.20;;
11957;SDS011;6039;52.576;13.348;2023-02-08T10:50:00;28.33;;;14.50;;
11957;SDS011;6039;52.576;13.348;2023-02-08T10:55:10;26.67;;;13.67;;
11957;SDS011;6039;52.576;13.348;2023-02-08T11:00:19;23.57;;;13.10;;
11957;SDS011;6039;52.576;13.348;2023-02-08T11:05:33;29.43;;;13.73;;
11957;SDS011;6039;52.576;13.348;2023-02-08T11:10:38;26.90;;;12.97;;
11957;SDS011;6039;52.576;13.348;2023-02-08T11:15:45;26.57;;;13.53;;
11957;SDS011;6039;52.576;13.348;2023-02-08T11:20:51;26.83;;;14.17;;
11957;SDS011;6039;52.576;13.348;2023-02-08T11:26:11;28.90;;;14.37;;
11957;SDS011;6039;52.576;13.348;2023-02-08T11:31:20;23.60;;;12.60;;
11957;SDS011;6039;52.576;13.348;2023-02-08T11:36:24;26.17;;;12.97;;
11957;SDS011;6039;52.576;13.348;2023-02-08T11:41:29;26.77;;;13.10;;
11957;SDS011;6039;52.576;13.348;2023-02-08T11:46:35;24.90;;;12.77;;
11957;SDS011;6039;52.576;13.348;2023-02-08T11:51:41;27.77;;;12.70;;
11957;SDS011;6039;52.576;13.348;2023-02-08T11:56:48;26.47;;;13.13;;
11957;SDS011;6039;52.576;13.348;2023-02-08T12:07:39;25.63;;;12.40;;
11957;SDS011;6039;52.576;13.348;2023-02-08T12:12:59;24.23;;;12.47;;
11957;SDS011;6039;52.576;13.348;2023-02-08T12:18:22;26.67;;;12.53;;
11957;SDS011;6039;52.576;13.348;2023-02-08T12:23:41;26.03;;;13.40;;
11957;SDS011;6039;52.576;13.348;2023-02-08T12:29:02;25.97;;;12.77;;
11957;SDS011;6039;52.576;13.348;2023-02-08T12:34:21;24.67;;;13.30;;
11957;SDS011;6039;52.576;13.348;2023-02-08T12:39:34;26.43;;;12.87;;
11957;SDS011;6039;52.576;13.348;2023-02-08T12:50:23;24.70;;;11.90;;
11957;SDS011;6039;52.576;13.348;2023-02-08T12:55:33;28.77;;;13.37;;
11957;SDS011;6039;52.576;13.348;2023-02-08T13:00:39;25.20;;;12.53;;
11957;SDS011;6039;52.576;13.348;2023-02-08T13:05:47;24.87;;;13.07;;
11957;SDS011;6039;52.576;13.348;2023-02-08T13:10:51;30.80;;;13.90;;
11957;SDS011;6039;52.576;13.348;2023-02-08T13:16:00;26.00;;;13.37;;
11957;SDS011;6039;52.576;13.348;2023-02-08T13:21:13;26.10;;;13.07;;
11957;SDS011;6039;52.576;13.348;2023-02-08T13:26:19;24.93;;;12.50;;
11957;SDS011;6039;52.576;13.348;2023-02-08T13:31:25;23.00;;;12.97;;
11957;SDS011;6039;52.576;13.348;2023-02-08T13:36:35;24.43;;;13.27;;
11957;SDS011;6039;52.576;13.348;2023-02-08T13:41:41;24.87;;;11.93;;
11957;SDS011;6039;52.576;13.348;2023-02-08T13:46:53;23.47;;;12.47;;
11957;SDS011;6039;52.576;13.348;2023-02-08T13:52:00;23.73;;;13.00;;
11957;SDS011;6039;52.576;13.348;2023-02-08T13:57:26;24.13;;;12.43;;
11957;SDS011;6039;52.576;13.348;2023-02-08T14:02:59;24.43;;;12.13;;
11957;SDS011;6039;52.576;13.348;2023-02-08T14:08:06;23.97;;;12.33;;
11957;SDS011;6039;52.576;13.348;2023-02-08T14:13:22;27.50;;;12.27;;
11957;SDS011;6039;52.576;13.348;2023-02-08T14:18:29;26.37;;;12.93;;
11957;SDS011;6039;52.576;13.348;2023-02-08T14:23:36;26.80;;;12.73;;
11957;SDS011;6039;52.576;13.348;2023-02-08T14:28:42;24.17;;;11.77;;
11957;SDS011;6039;52.576;13.348;2023-02-08T14:33:49;24.07;;;12.13;;
11957;SDS011;6039;52.576;13.348;2023-02-08T14:50:04;26.27;;;13.33;;
11957;SDS011;6039;52.576;13.348;2023-02-08T14:55:16;29.93;;;13.10;;
11957;SDS011;6039;52.576;13.348;2023-02-08T15:00:26;29.13;;;13.37;;
11957;SDS011;6039;52.576;13.348;2023-02-08T15:05:33;26.00;;;12.40;;
11957;SDS011;6039;52.576;13.348;2023-02-08T15:10:42;22.97;;;11.47;;
11957;SDS011;6039;52.576;13.348;2023-02-08T15:15:48;26.23;;;13.37;;
11957;SDS011;6039;52.576;13.348;2023-02-08T15:20:59;23.87;;;12.47;;
11957;SDS011;6039;52.576;13.348;2023-02-08T15:26:18;25.10;;;12.27;;
11957;SDS011;6039;52.576;13.348;2023-02-08T15:31:25;24.50;;;13.33;;
11957;SDS011;6039;52.576;13.348;2023-02-08T15:36:33;26.53;;;12.47;;
11957;SDS011;6039;52.576;13.348;2023-02-08T15:41:41;27.23;;;12.53;;
11957;SDS011;6039;52.576;13.348;2023-02-08T15:46:45;29.63;;;12.63;;
11957;SDS011;6039;52.576;13.348;2023-02-08T15:51:50;24.30;;;11.50;;
11957;SDS011;6039;52.576;13.348;2023-02-08T15:56:59;24.03;;;11.03;;
11957;SDS011;6039;52.576;13.348;2023-02-08T16:02:10;26.17;;;11.13;;
11957;SDS011;6039;52.576;13.348;2023-02-08T16:07:24;26.37;;;12.13;;
11957;SDS011;6039;52.576;13.348;2023-02-08T16:12:33;24.10;;;11.07;;
11957;SDS011;6039;52.576;13.348;2023-02-08T16:17:40;24.73;;;11.90;;
11957;SDS011;6039;52.576;13.348;2023-02-08T16:22:52;24.73;;;12.00;;
11957;SDS011;6039;52.576;13.348;2023-02-08T16:28:00;22.73;;;11.23;;
11957;SDS011;6039;52.576;13.348;2023-02-08T16:33:05;22.40;;;11.03;;
11957;SDS011;6039;52.576;13.348;2023-02-08T16:38:11;22.87;;;10.80;;
11957;SDS011;6039;52.576;13.348;2023-02-08T16:43:24;21.87;;;11.23;;
11957;SDS011;6039;52.576;13.348;2023-02-08T16:48:31;23.53;;;10.90;;
11957;SDS011;6039;52.576;13.348;2023-02-08T16:53:36;22.47;;;11.13;;
11957;SDS011;6039;52.576;13.348;2023-02-08T16:58:43;25.17;;;12.87;;
11957;SDS011;6039;52.576;13.348;2023-02-08T17:03:47;23.27;;;11.70;;
11957;SDS011;6039;52.576;13.348;2023-02-08T17:08:51;26.13;;;11.87;;
11957;SDS011;6039;52.576;13.348;2023-02-08T17:13:58;23.23;;;10.83;;
11957;SDS011;6039;52.576;13.348;2023-02-08T17:19:04;27.63;;;11.10;;
11957;SDS011;6039;52.576;13.348;2023-02-08T17:24:09;25.63;;;10.83;;
11957;SDS011;6039;52.576;13.348;2023-02-08T17:29:15;19.20;;;10.07;;
11957;SDS011;6039;52.576;13.348;2023-02-08T17:34:19;26.03;;;10.63;;
11957;SDS011;6039;52.576;13.348;2023-02-08T17:39:23;25.50;;;10.77;;
11957;SDS011;6039;52.576;13.348;2023-02-08T17:44:30;24.83;;;10.07;;
11957;SDS011;6039;52.576;13.348;2023-02-08T17:49:34;26.50;;;11.23;;
11957;SDS011;6039;52.576;13.348;2023-02-08T17:54:39;20.90;;;10.27;;
11957;SDS011;6039;52.576;13.348;2023-02-08T17:59:45;21.27;;;10.87;;
11957;SDS011;6039;52.576;13.348;2023-02-08T18:04:49;28.83;;;11.20;;
11957;SDS011;6039;52.576;13.348;2023-02-08T18:09:53;19.70;;;10.17;;
11957;SDS011;6039;52.576;13.348;2023-02-08T18:15:00;23.80;;;10.50;;
11957;SDS011;6039;52.576;13.348;2023-02-08T18:20:05;23.47;;;10.13;;
11957;SDS011;6039;52.576;13.348;2023-02-08T18:25:10;23.53;;;10.17;;
11957;SDS011;6039;52.576;13.348;2023-02-08T18:30:17;23.27;;;10.20;;
11957;SDS011;6039;52.576;13.348;2023-02-08T18:35:21;19.73;;;10.03;;
11957;SDS011;6039;52.576;13.348;2023-02-08T18:40:25;23.97;;;9.70;;
11957;SDS011;6039;52.576;13.348;2023-02-08T18:45:32;19.27;;;9.20;;
11957;SDS011;6039;52.576;13.348;2023-02-08T18:50:36;22.37;;;9.33;;
11957;SDS011;6039;52.576;13.348;2023-02-08T18:55:40;24.60;;;9.97;;
11957;SDS011;6039;52.576;13.348;2023-02-08T19:00:47;21.67;;;9.90;;
11957;SDS011;6039;52.576;13.348;2023-02-08T19:05:51;20.13;;;9.30;;
11957;SDS011;6039;52.576;13.348;2023-02-08T19:10:55;28.73;;;11.17;;
11957;SDS011;6039;52.576;13.348;2023-02-08T19:16:02;21.30;;;9.33;;
11957;SDS011;6039;52.576;13.348;2023-02-08T19:21:09;23.27;;;10.30;;
11957;SDS011;6039;52.576;13.348;2023-02-08T19:26:15;22.60;;;9.47;;
11957;SDS011;6039;52.576;13.348;2023-02-08T19:31:23;21.93;;;10.10;;
11957;SDS011;6039;52.576;13.348;2023-02-08T19:36:28;20.07;;;9.43;;
11957;SDS011;6039;52.576;13.348;2023-02-08T19:41:34;18.37;;;8.83;;
11957;SDS011;6039;52.576;13.348;2023-02-08T19:46:45;22.13;;;10.03;;
11957;SDS011;6039;52.576;13.348;2023-02-08T19:51:50;19.80;;;8.97;;
11957;SDS011;6039;52.576;13.348;2023-02-08T19:56:54;23.87;;;9.83;;
11957;SDS011;6039;52.576;13.348;2023-02-08T20:02:00;25.70;;;9.70;;
11957;SDS011;6039;52.576;13.348;2023-02-08T20:07:05;22.17;;;9.73;;
11957;SDS011;6039;52.576;13.348;2023-02-08T20:12:10;18.83;;;9.03;;
11957;SDS011;6039;52.576;13.348;2023-02-08T20:17:16;21.43;;;9.63;;
11957;SDS011;6039;52.576;13.348;2023-02-08T20:22:20;25.33;;;9.20;;
11957;SDS011;6039;52.576;13.348;2023-02-08T20:27:27;19.37;;;8.70;;
11957;SDS011;6039;52.576;13.348;2023-02-08T20:32:34;18.60;;;9.43;;
11957;SDS011;6039;52.576;13.348;2023-02-08T20:37:39;20.50;;;9.37;;
11957;SDS011;6039;52.576;13.348;2023-02-08T20:42:43;18.53;;;8.67;;
11957;SDS011;6039;52.576;13.348;2023-02-08T20:47:51;21.17;;;9.50;;
11957;SDS011;6039;52.576;13.348;2023-02-08T20:52:55;18.30;;;8.53;;
11957;SDS011;6039;52.576;13.348;2023-02-08T20:57:59;18.90;;;8.40;;
11957;SDS011;6039;52.576;13.348;2023-02-08T21:03:05;18.33;;;8.20;;
11957;SDS011;6039;52.576;13.348;2023-02-08T21:08:09;16.77;;;7.60;;
11957;SDS011;6039;52.576;13.348;2023-02-08T21:13:13;17.83;;;7.30;;
11957;SDS011;6039;52.576;13.348;2023-02-08T21:18:20;16.43;;;7.20;;
11957;SDS011;6039;52.576;13.348;2023-02-08T21:23:24;14.73;;;7.53;;
11957;SDS011;6039;52.576;13.348;2023-02-08T21:28:28;17.97;;;7.50;;
11957;SDS011;6039;52.576;13.348;2023-02-08T21:33:35;16.30;;;7.30;;
11957;SDS011;6039;52.576;13.348;2023-02-08T21:38:39;15.77;;;7.13;;
11957;SDS011;6039;52.576;13.348;2023-02-08T21:43:43;15.57;;;7.73;;
11957;SDS011;6039;52.576;13.348;2023-02-08T21:48:49;19.07;;;7.30;;
11957;SDS011;6039;52.576;13.348;2023-02-08T21:54:07;16.30;;;7.73;;
11957;SDS011;6039;52.576;13.348;2023-02-08T21:59:25;13.70;;;6.83;;
11957;SDS011;6039;52.576;13.348;2023-02-08T22:04:32;14.50;;;7.43;;
11957;SDS011;6039;52.576;13.348;2023-02-08T22:09:37;17.10;;;8.07;;
11957;SDS011;6039;52.576;13.348;2023-02-08T22:14:42;17.53;;;7.23;;
11957;SDS011;6039;52.576;13.348;2023-02-08T22:19:48;22.07;;;7.63;;
11957;SDS011;6039;52.576;13.348;2023-02-08T22:24:52;17.30;;;6.53;;
11957;SDS011;6039;52.576;13.348;2023-02-08T22:29:56;16.67;;;7.60;;
11957;SDS011;6039;52.576;13.348;2023-02-08T22:35:03;14.87;;;7.20;;
11957;SDS011;6039;52.576;13.348;2023-02-08T22:40:09;15.00;;;6.93;;
11957;SDS011;6039;52.576;13.348;2023-02-08T22:45:14;14.17;;;7.17;;
11957;SDS011;6039;52.576;13.348;2023-02-08T22:50:21;17.83;;;6.97;;
11957;SDS011;6039;52.576;13.348;2023-02-08T22:55:25;15.93;;;7.47;;
11957;SDS011;6039;52.576;13.348;2023-02-08T23:00:29;17.23;;;7.20;;
11957;SDS011;6039;52.576;13.348;2023-02-08T23:05:36;13.80;;;6.93;;
11957;SDS011;6039;52.576;13.348;2023-02-08T23:10:42;13.13;;;6.30;;
11957;SDS011;6039;52.576;13.348;2023-02-08T23:15:46;15.27;;;6.37;;
11957;SDS011;6039;52.576;13.348;2023-02-08T23:20:53;16.47;;;6.53;;
11957;SDS011;6039;52.576;13.348;2023-02-08T23:25:57;14.30;;;6.10;;
11957;SDS011;6039;52.576;13.348;2023-02-08T23:31:03;14.03;;;7.10;;
11957;SDS011;6039;52.576;13.348;2023-02-08T23:36:10;16.33;;;6.80;;
11957;SDS011;6039;52.576;13.348;2023-02-08T23:41:16;13.50;;;6.67;;
11957;SDS011;6039;52.576;13.348;2023-02-08T23:46:23;15.90;;;6.77;;
11957;SDS011;6039;52.576;13.348;2023-02-08T23:51:30;12.93;;;6.63;;
11957;SDS011;6039;52.576;13.348;2023-02-08T23:56:34;15.87;;;7.37;;
